ENSO

Stord Airport

Leirvik, Norway
METAR ENSO 251650Z 25006KT 220V280 9999 SCT012 SCT018TCU BKN040 08/05 Q1001
Observed Flight Rules
Apr-25 @ 16:50 UTC (an hour ago) Visual Flight Rules
Wind Visibility Clouds
250° at 6 knots 10,000+ meters
  • Scattered at 1,200' AGL
  • Scattered at 1,800' AGL
  • Broken at 4,000' AGL
Temperatures Readings
Current 8°C / 46°F
Dewpoint 5°C / 41°F
Humidity 82%
Altimeter 29.56" Hg
Pressure 1001 hPa
Elevation 49
METAR ENSO 251650Z 25006KT 220V280 9999 SCT012 SCT018TCU BKN040 08/05 Q1001
Observed Flight Rules
Apr-25 @ 16:50 UTC
(an hour ago)
VFR
Wind Visibility
250° at 6 knots 10,000+ meters
Clouds
  • Scattered at 1,200' AGL
  • Scattered at 1,800' AGL
  • Broken at 4,000' AGL
Temperature Dewpoint
8°C / 46°F 5°C / 41°F
Humidity Altimeter Pressure
82% 29.56" Hg 1001 hPa